Time;durP1;ratioP1;P1;durP2;ratioP2;P2;SDS_P1;SDS_P2;PMS_P1;PMS_P2;Temp;Humidity;BMP_temperature;BMP_pressure;BME280_temperature;BME280_humidity;BME280_pressure;Samples;Min_cycle;Max_cycle;Signal;HPM_P1;HPM_P2
2023/02/22 00:02:23;;;;;;;8.05;5.45;;;;;;;10.59;35.69;94922.63;5089008;28;20078;-80
2023/02/22 00:04:49;;;;;;;7.80;4.35;;;;;;;10.56;35.67;94923.53;5087239;28;20020;-78
2023/02/22 00:07:14;;;;;;;7.35;4.47;;;;;;;10.51;35.74;94923.28;5087067;28;20031;-78
2023/02/22 00:09:40;;;;;;;10.48;5.28;;;;;;;10.47;35.87;94925.34;5088288;28;20115;-79
2023/02/22 00:12:07;;;;;;;6.75;4.40;;;;;;;10.44;36.03;94926.25;5087458;28;20031;-80
2023/02/22 00:14:32;;;;;;;6.63;4.35;;;;;;;10.46;35.97;94923.81;5094818;28;20371;-78
2023/02/22 00:16:58;;;;;;;7.70;4.30;;;;;;;10.34;36.13;94923.34;5088878;28;20034;-77
2023/02/22 00:19:25;;;;;;;5.78;3.53;;;;;;;10.28;36.39;94916.09;5087241;28;20032;-79
2023/02/22 00:21:54;;;;;;;4.88;3.42;;;;;;;10.33;36.12;94929.28;5086788;28;20039;-80
2023/02/22 00:24:22;;;;;;;7.28;3.70;;;;;;;10.33;36.24;94924.56;5087777;28;20024;-79
2023/02/22 00:26:54;;;;;;;6.90;3.53;;;;;;;10.35;36.08;94921.38;5092187;28;20028;-78
2023/02/22 00:29:20;;;;;;;7.38;3.67;;;;;;;10.33;36.12;94930.06;5085602;28;20036;-80
2023/02/22 00:31:46;;;;;;;7.22;4.13;;;;;;;10.25;36.21;94920.44;5086089;28;20028;-80
2023/02/22 00:34:12;;;;;;;11.07;4.25;;;;;;;10.29;36.41;94915.63;5068995;28;20028;-80
2023/02/22 00:36:38;;;;;;;7.95;3.75;;;;;;;10.25;36.59;94909.47;5086620;28;20024;-78
2023/02/22 00:39:03;;;;;;;5.68;3.80;;;;;;;10.26;36.35;94908.25;5087683;28;20032;-78
2023/02/22 00:41:29;;;;;;;7.40;4.25;;;;;;;10.26;36.57;94913.75;5067989;28;20409;-78
2023/02/22 00:43:54;;;;;;;8.98;5.03;;;;;;;10.22;36.95;94906.81;5087426;28;20518;-78
2023/02/22 00:46:20;;;;;;;7.03;3.92;;;;;;;10.14;37.00;94903.47;5086114;28;20110;-80
2023/02/22 00:48:45;;;;;;;8.02;4.50;;;;;;;10.17;36.94;94910.09;5087910;28;20083;-79
2023/02/22 00:51:10;;;;;;;7.93;4.30;;;;;;;10.15;37.24;94899.53;5086936;28;20020;-79
2023/02/22 00:53:36;;;;;;;7.85;4.45;;;;;;;10.12;36.97;94905.88;5085117;28;20036;-79
2023/02/22 00:56:01;;;;;;;7.13;4.90;;;;;;;10.07;37.29;94903.66;5087228;28;20054;-80
2023/02/22 00:58:27;;;;;;;7.82;5.03;;;;;;;9.98;37.58;94907.06;5085831;28;20112;-79
2023/02/22 01:00:53;;;;;;;9.18;4.80;;;;;;;9.93;37.68;94907.59;5087201;28;20035;-79
2023/02/22 01:03:19;;;;;;;7.72;4.43;;;;;;;9.91;37.97;94904.47;5085587;28;20030;-78
2023/02/22 01:05:45;;;;;;;8.57;4.85;;;;;;;9.82;37.85;94901.59;5085908;28;20107;-79
2023/02/22 01:08:12;;;;;;;7.97;4.40;;;;;;;9.77;38.09;94899.38;5084299;28;20462;-79
2023/02/22 01:10:38;;;;;;;7.55;4.03;;;;;;;9.72;37.78;94892.44;5085023;28;20045;-79
2023/02/22 01:13:07;;;;;;;9.45;5.20;;;;;;;9.72;37.99;94892.44;5084787;28;20024;-78
2023/02/22 01:15:33;;;;;;;9.80;4.97;;;;;;;9.70;37.95;94897.59;5083509;28;20203;-78
2023/02/22 01:17:59;;;;;;;8.30;5.45;;;;;;;9.64;37.95;94895.81;5086522;28;20024;-78
2023/02/22 01:20:25;;;;;;;10.40;5.25;;;;;;;9.58;38.05;94890.06;5099933;28;20028;-79
2023/02/22 01:22:53;;;;;;;9.45;5.00;;;;;;;9.64;38.18;94895.81;5087961;28;20407;-78
2023/02/22 01:25:22;;;;;;;8.10;4.70;;;;;;;9.68;38.13;94890.97;5067518;28;20024;-79
2023/02/22 01:27:49;;;;;;;9.90;5.15;;;;;;;9.57;38.32;94866.53;5085333;28;20024;-78
2023/02/22 01:30:15;;;;;;;9.70;4.82;;;;;;;9.58;38.29;94890.84;5085011;28;20024;-80
2023/02/22 01:32:41;;;;;;;11.40;4.78;;;;;;;9.52;38.45;94881.59;5067441;28;20051;-78
2023/02/22 01:35:12;;;;;;;7.00;4.68;;;;;;;9.50;38.51;94888.69;5085227;28;20085;-79
2023/02/22 01:37:38;;;;;;;8.38;4.30;;;;;;;9.37;38.83;94896.09;5066721;28;20035;-78
2023/02/22 01:40:06;;;;;;;8.05;4.20;;;;;;;9.31;38.91;94891.13;5085584;28;20024;-79
2023/02/22 01:42:31;;;;;;;10.65;5.20;;;;;;;9.22;39.25;94890.94;5083433;28;20581;-79
2023/02/22 01:45:48;;;;;;;8.43;5.38;;;;;;;9.20;39.25;94895.31;5085109;28;20082;-78
2023/02/22 01:48:50;;;;;;;11.95;6.07;;;;;;;9.13;39.33;94885.28;5062985;28;20054;-78
2023/02/22 01:51:23;;;;;;;10.52;5.65;;;;;;;9.12;39.54;94892.00;5084831;28;20043;-78
2023/02/22 01:54:01;;;;;;;12.32;6.85;;;;;;;9.08;39.48;94882.28;5084391;28;20514;-78
2023/02/22 01:56:29;;;;;;;13.02;6.82;;;;;;;9.07;39.62;94888.97;5084545;28;20032;-78
2023/02/22 01:59:02;;;;;;;10.65;5.65;;;;;;;8.98;39.89;94887.59;5087102;28;20170;-78
2023/02/22 02:01:28;;;;;;;8.75;5.30;;;;;;;8.93;39.83;94890.06;5086587;28;20089;-78
2023/02/22 02:03:57;;;;;;;7.55;4.40;;;;;;;8.74;40.11;94878.75;5083576;28;20032;-78
2023/02/22 02:06:23;;;;;;;9.50;4.80;;;;;;;8.80;39.84;94895.47;5085526;28;20045;-79
2023/02/22 02:08:59;;;;;;;6.57;3.95;;;;;;;8.75;40.16;94880.28;5083382;28;20031;-79
2023/02/22 02:11:25;;;;;;;7.10;4.50;;;;;;;8.70;40.17;94891.75;5084066;28;20032;-79
2023/02/22 02:13:56;;;;;;;6.55;4.30;;;;;;;8.74;40.33;94892.44;5084298;28;20454;-79
2023/02/22 02:16:23;;;;;;;11.32;4.78;;;;;;;8.67;40.48;94891.84;5087686;28;20107;-79
2023/02/22 02:18:49;;;;;;;7.88;4.80;;;;;;;8.71;40.41;94890.53;5084884;28;20099;-78
2023/02/22 02:21:36;;;;;;;8.27;4.57;;;;;;;8.62;40.72;94889.59;5082723;28;20038;-79
2023/02/22 02:24:27;;;;;;;10.02;4.93;;;;;;;8.49;40.92;94893.00;5087332;28;20032;-78
2023/02/22 02:27:11;;;;;;;8.32;5.28;;;;;;;8.46;41.09;94895.81;5089182;28;20028;-78
2023/02/22 02:29:54;;;;;;;8.35;5.07;;;;;;;8.41;41.16;94896.31;5084095;28;20028;-78
2023/02/22 02:32:38;;;;;;;15.55;6.85;;;;;;;8.36;41.38;94902.28;5086025;28;20031;-79
2023/02/22 02:35:22;;;;;;;10.40;6.28;;;;;;;8.30;41.51;94907.44;5085343;28;20036;-78
2023/02/22 02:38:03;;;;;;;10.45;5.05;;;;;;;8.24;41.25;94898.19;5084138;28;20144;-79
2023/02/22 02:41:09;;;;;;;15.18;5.63;;;;;;;8.18;41.63;94899.88;5085038;28;20479;-80
2023/02/22 02:43:42;;;;;;;8.68;5.15;;;;;;;8.13;41.81;94898.41;5074641;28;20059;-79
2023/02/22 02:46:24;;;;;;;7.88;5.05;;;;;;;8.05;42.01;94901.72;5084487;28;20021;-79
2023/02/22 02:48:56;;;;;;;9.73;5.20;;;;;;;8.04;41.85;94895.47;5067101;28;20039;-79
2023/02/22 02:51:23;;;;;;;7.38;5.07;;;;;;;8.04;41.93;94897.44;5082351;28;20107;-80
2023/02/22 02:53:50;;;;;;;9.63;5.10;;;;;;;8.01;42.16;94901.00;5084119;28;20028;-78
2023/02/22 02:56:17;;;;;;;10.20;4.97;;;;;;;7.97;42.07;94901.06;5083069;28;20144;-78
2023/02/22 02:58:51;;;;;;;9.13;5.13;;;;;;;7.89;41.89;94905.91;5085230;28;20028;-78
2023/02/22 03:01:49;;;;;;;8.95;4.90;;;;;;;7.86;42.16;94909.50;5083846;28;20039;-78
2023/02/22 03:04:29;;;;;;;7.57;4.63;;;;;;;7.81;42.13;94909.22;5066057;28;20048;-78
2023/02/22 03:07:13;;;;;;;11.10;4.90;;;;;;;7.74;42.40;94899.16;5084069;28;20042;-78
2023/02/22 03:10:01;;;;;;;9.90;4.43;;;;;;;7.67;42.53;94908.25;5085336;28;20035;-80
2023/02/22 03:12:44;;;;;;;9.00;4.50;;;;;;;7.61;42.37;94906.44;5085695;28;20043;-79
2023/02/22 03:15:26;;;;;;;6.50;4.03;;;;;;;7.57;42.52;94906.50;5084432;28;20028;-79
2023/02/22 03:18:21;;;;;;;9.20;3.90;;;;;;;7.58;42.43;94905.31;5082755;28;20077;-79
2023/02/22 03:20:57;;;;;;;6.63;3.55;;;;;;;7.59;42.46;94904.13;5084081;28;20024;-79
2023/02/22 03:23:37;;;;;;;7.07;3.25;;;;;;;7.54;42.45;94907.34;5067382;28;20039;-78
2023/02/22 03:26:08;;;;;;;7.00;4.90;;;;;;;7.57;42.57;94905.72;5064992;28;20056;-77
2023/02/22 03:28:35;;;;;;;7.88;3.85;;;;;;;7.56;42.46;94904.16;5084975;28;20024;-79
2023/02/22 03:31:09;;;;;;;9.20;3.78;;;;;;;7.54;42.46;94912.03;5093146;28;20035;-79
2023/02/22 03:33:44;;;;;;;10.43;3.97;;;;;;;7.54;42.52;94899.13;5083562;28;20034;-79
2023/02/22 03:36:17;;;;;;;9.85;4.05;;;;;;;7.52;42.62;94890.56;5085345;28;20032;-79
2023/02/22 03:38:44;;;;;;;6.10;3.85;;;;;;;7.45;42.72;94905.16;5084982;28;20020;-79
2023/02/22 03:41:10;;;;;;;7.20;3.60;;;;;;;7.43;42.82;94898.53;5088174;28;20142;-79
2023/02/22 03:43:41;;;;;;;7.07;3.67;;;;;;;7.42;42.82;94905.97;5087411;28;20052;-79
2023/02/22 03:46:08;;;;;;;7.07;3.65;;;;;;;7.44;42.89;94902.81;5087445;28;20418;-79
2023/02/22 03:48:53;;;;;;;6.65;3.50;;;;;;;7.41;43.17;94901.69;5069512;28;20039;-78
2023/02/22 03:51:19;;;;;;;7.75;3.67;;;;;;;7.41;43.12;94898.97;5087403;28;20440;-79
2023/02/22 03:53:46;;;;;;;8.18;3.88;;;;;;;7.40;43.16;94904.84;5070234;28;20036;-79
2023/02/22 03:56:18;;;;;;;6.38;3.70;;;;;;;7.44;42.96;94908.28;5085677;28;20056;-79
2023/02/22 03:58:46;;;;;;;9.90;4.25;;;;;;;7.48;42.91;94909.00;5087588;28;20050;-77
2023/02/22 04:01:12;;;;;;;9.18;4.28;;;;;;;7.41;42.98;94907.16;5086160;28;20028;-79
2023/02/22 04:03:41;;;;;;;8.10;4.80;;;;;;;7.45;43.06;94907.09;5086486;28;20105;-77
2023/02/22 04:06:07;;;;;;;10.35;4.97;;;;;;;7.45;43.22;94904.34;5092008;28;20081;-78
2023/02/22 04:08:34;;;;;;;11.10;4.45;;;;;;;7.42;43.16;94908.72;5085742;28;20540;-78
2023/02/22 04:11:00;;;;;;;8.40;4.00;;;;;;;7.39;43.24;94903.28;5088709;28;20024;-79
2023/02/22 04:13:26;;;;;;;7.72;4.57;;;;;;;7.42;43.27;94911.44;5087122;28;20031;-78
2023/02/22 04:15:51;;;;;;;7.55;4.05;;;;;;;7.36;43.11;94909.59;5071978;28;20025;-77
2023/02/22 04:18:17;;;;;;;9.82;4.57;;;;;;;7.31;43.30;94907.34;5069101;28;20023;-79
2023/02/22 04:20:43;;;;;;;10.45;4.72;;;;;;;7.29;43.37;94920.66;5086387;28;20024;-78
2023/02/22 04:23:09;;;;;;;10.05;3.88;;;;;;;7.28;43.65;94911.66;5086674;28;20089;-79
2023/02/22 04:25:34;;;;;;;8.50;4.03;;;;;;;7.29;43.61;94907.78;5068769;28;20496;-79
2023/02/22 04:28:00;;;;;;;11.00;4.60;;;;;;;7.23;43.77;94912.16;5088411;28;20121;-78
2023/02/22 04:30:27;;;;;;;10.82;5.03;;;;;;;7.17;43.69;94917.34;5084950;28;20165;-78
2023/02/22 04:32:52;;;;;;;15.18;5.03;;;;;;;7.18;43.81;94920.84;5088157;28;20101;-79
2023/02/22 04:35:19;;;;;;;9.88;6.10;;;;;;;7.10;43.95;94917.44;5088430;28;20035;-78
2023/02/22 04:37:44;;;;;;;12.93;6.55;;;;;;;7.12;43.96;94915.06;5088842;28;20028;-78
2023/02/22 04:40:10;;;;;;;15.15;6.82;;;;;;;7.13;43.92;94921.31;5069365;28;20575;-79
2023/02/22 04:42:37;;;;;;;11.75;6.00;;;;;;;7.12;43.85;94915.06;5068463;28;20051;-76
2023/02/22 04:45:04;;;;;;;9.85;5.78;;;;;;;6.99;44.04;94914.09;5087515;28;20436;-76
2023/02/22 04:47:31;;;;;;;11.65;6.72;;;;;;;7.03;43.97;94914.81;5086258;28;20028;-77
2023/02/22 04:49:56;;;;;;;13.55;5.95;;;;;;;7.07;43.72;94922.97;5087369;28;20028;-78
2023/02/22 04:52:22;;;;;;;13.10;6.90;;;;;;;7.03;43.93;94916.78;5067513;28;20035;-77
2023/02/22 04:54:47;;;;;;;12.05;6.70;;;;;;;6.96;44.11;94912.19;5087212;28;20419;-77
2023/02/22 04:57:13;;;;;;;10.18;6.45;;;;;;;6.90;44.21;94909.16;5086010;28;20072;-77
2023/02/22 04:59:39;;;;;;;13.27;7.00;;;;;;;6.84;44.10;94912.78;5087232;28;20028;-77
2023/02/22 05:02:05;;;;;;;12.48;7.07;;;;;;;6.79;44.20;94918.69;5071195;28;20032;-77
2023/02/22 05:04:30;;;;;;;18.27;9.93;;;;;;;6.81;44.46;94935.44;5084589;28;20039;-76
2023/02/22 05:06:55;;;;;;;22.42;10.82;;;;;;;6.82;44.46;94918.63;5085463;28;20105;-77
2023/02/22 05:09:21;;;;;;;17.67;10.32;;;;;;;6.52;44.46;94883.16;5084263;28;20106;-78
2023/02/22 05:11:47;;;;;;;15.15;8.65;;;;;;;6.77;44.45;94923.81;5086066;28;20093;-77
2023/02/22 05:14:12;;;;;;;14.60;8.63;;;;;;;6.73;44.40;94932.03;5085597;28;20115;-77
2023/02/22 05:16:38;;;;;;;16.35;8.73;;;;;;;6.63;44.49;94922.03;5085669;28;20479;-78
2023/02/22 05:19:04;;;;;;;15.35;8.32;;;;;;;6.65;44.66;94934.13;5068061;28;20115;-77
2023/02/22 05:21:29;;;;;;;15.38;7.55;;;;;;;6.64;44.51;94934.50;5067779;28;20088;-77
2023/02/22 05:23:54;;;;;;;12.88;7.47;;;;;;;6.63;44.68;94935.69;5085827;28;20039;-77
2023/02/22 05:26:20;;;;;;;13.25;7.65;;;;;;;6.64;44.52;94937.22;5084085;28;20097;-77
2023/02/22 05:28:45;;;;;;;13.65;8.65;;;;;;;6.68;44.57;94934.47;5086854;28;20067;-78
2023/02/22 05:31:11;;;;;;;21.33;10.65;;;;;;;6.65;44.64;94944.25;5085169;28;20036;-77
2023/02/22 05:33:38;;;;;;;19.65;12.15;;;;;;;6.60;44.68;94942.00;5085944;28;20525;-79
2023/02/22 05:36:04;;;;;;;26.27;15.02;;;;;;;6.68;44.58;94950.84;5085327;28;20039;-76
2023/02/22 05:38:31;;;;;;;26.77;14.73;;;;;;;6.66;44.51;94940.34;5085974;28;20028;-77
2023/02/22 05:40:57;;;;;;;23.67;12.20;;;;;;;6.65;44.74;94946.97;5088609;28;20055;-78
2023/02/22 05:43:22;;;;;;;19.98;11.23;;;;;;;6.71;44.79;94955.47;5086408;28;20108;-77
2023/02/22 05:45:49;;;;;;;21.75;10.75;;;;;;;6.73;44.69;94959.38;5085243;28;20043;-77
2023/02/22 05:48:14;;;;;;;17.83;10.30;;;;;;;6.74;44.98;94955.44;5084686;28;20185;-77
2023/02/22 05:50:40;;;;;;;20.38;10.70;;;;;;;6.75;45.20;94965.19;5085690;28;20103;-77
2023/02/22 05:53:05;;;;;;;23.38;10.55;;;;;;;6.75;45.05;94964.41;5084725;28;20380;-77
2023/02/22 05:55:32;;;;;;;25.88;9.70;;;;;;;6.76;45.06;94966.72;5089657;28;20024;-78
2023/02/22 05:57:57;;;;;;;16.00;9.30;;;;;;;6.78;45.19;94978.03;5087844;28;20024;-78
2023/02/22 06:00:28;;;;;;;22.38;10.13;;;;;;;6.84;45.09;94975.63;5067330;28;20398;-79
2023/02/22 06:02:58;;;;;;;22.70;10.65;;;;;;;6.88;44.93;94974.38;5085795;28;20027;-80
2023/02/22 06:05:24;;;;;;;19.10;9.23;;;;;;;6.95;44.94;94976.25;5082345;28;20150;-79
2023/02/22 06:07:50;;;;;;;14.45;9.38;;;;;;;6.96;44.75;94988.72;5067935;28;20085;-80
2023/02/22 06:10:15;;;;;;;35.97;11.30;;;;;;;6.96;45.18;94974.28;5083537;28;20414;-79
2023/02/22 06:12:43;;;;;;;27.60;10.73;;;;;;;6.93;45.04;94973.13;5086567;28;20050;-79
2023/02/22 06:15:09;;;;;;;18.83;9.07;;;;;;;6.99;44.64;94976.94;5084261;28;20030;-80
2023/02/22 06:17:35;;;;;;;24.40;10.45;;;;;;;7.01;44.64;94973.81;5084012;28;20055;-80
2023/02/22 06:20:01;;;;;;;22.00;11.02;;;;;;;7.06;44.83;94981.56;5085083;28;20425;-78
2023/02/22 06:22:26;;;;;;;16.50;8.95;;;;;;;7.15;44.43;94977.09;5083324;28;20415;-77
2023/02/22 06:24:52;;;;;;;15.80;9.18;;;;;;;7.27;44.24;94980.44;5067730;28;20024;-79
2023/02/22 06:27:17;;;;;;;15.48;9.63;;;;;;;7.30;43.97;94976.91;5084914;28;20055;-79
2023/02/22 06:29:45;;;;;;;13.82;9.05;;;;;;;7.34;43.85;94972.13;5095182;28;20039;-77
2023/02/22 06:32:11;;;;;;;16.08;8.95;;;;;;;7.40;43.89;94975.97;5089401;28;20422;-80
2023/02/22 06:34:36;;;;;;;17.88;9.20;;;;;;;7.49;43.58;94976.19;5085102;28;20853;-80
2023/02/22 06:37:02;;;;;;;22.67;9.20;;;;;;;7.59;43.43;94982.69;5085385;28;20063;-80
2023/02/22 06:39:27;;;;;;;19.10;10.13;;;;;;;7.56;43.50;94978.03;5083680;28;20028;-79
2023/02/22 06:41:54;;;;;;;18.27;10.25;;;;;;;7.68;43.39;94988.38;5086059;28;20060;-80
2023/02/22 06:44:20;;;;;;;19.75;11.35;;;;;;;7.81;43.64;94988.56;5083578;28;20048;-78
2023/02/22 06:46:51;;;;;;;19.75;11.30;;;;;;;7.90;43.32;94989.56;5092391;28;20034;-78
2023/02/22 06:49:18;;;;;;;22.48;11.43;;;;;;;8.00;43.14;94990.56;5084035;28;20032;-78
2023/02/22 06:51:43;;;;;;;40.17;14.02;;;;;;;8.12;42.69;94991.94;5088425;28;20028;-77
2023/02/22 06:54:08;;;;;;;28.13;15.75;;;;;;;8.28;42.36;94996.72;5085346;28;20028;-78
2023/02/22 06:56:34;;;;;;;32.08;17.58;;;;;;;8.39;42.31;94989.88;5084579;28;20119;-79
2023/02/22 06:59:00;;;;;;;29.85;17.45;;;;;;;8.46;42.13;94987.00;5086005;28;20020;-79
2023/02/22 07:01:27;;;;;;;25.77;15.43;;;;;;;8.56;41.94;94990.72;5084831;28;20052;-80
2023/02/22 07:03:52;;;;;;;22.55;14.27;;;;;;;8.63;41.67;94982.34;5084816;28;20035;-79
2023/02/22 07:06:17;;;;;;;29.63;14.52;;;;;;;8.68;41.49;94984.59;5083242;28;20024;-80
2023/02/22 07:08:43;;;;;;;27.25;14.13;;;;;;;8.81;41.23;94981.97;5085872;28;20063;-80
2023/02/22 07:11:08;;;;;;;24.58;13.52;;;;;;;8.88;40.86;94986.53;5083464;28;20020;-78
2023/02/22 07:13:34;;;;;;;24.60;13.15;;;;;;;8.95;40.60;94989.91;5088097;28;20028;-78
2023/02/22 07:15:59;;;;;;;24.52;13.57;;;;;;;9.13;40.07;94991.47;5089330;28;20102;-79
2023/02/22 07:18:25;;;;;;;19.48;11.20;;;;;;;9.24;39.70;94992.78;5087167;28;20035;-78
2023/02/22 07:20:50;;;;;;;20.70;11.30;;;;;;;9.31;39.67;94978.91;5087045;28;20024;-78
2023/02/22 07:23:16;;;;;;;23.23;11.95;;;;;;;9.40;39.51;94993.97;5085228;28;20164;-77
2023/02/22 07:25:42;;;;;;;20.35;10.93;;;;;;;9.41;39.59;94982.59;5087179;28;20448;-77
2023/02/22 07:28:09;;;;;;;17.30;9.65;;;;;;;9.56;39.24;94983.78;5087608;28;20019;-77
2023/02/22 07:30:35;;;;;;;17.35;10.52;;;;;;;9.68;39.00;94989.78;5088130;28;20028;-78
2023/02/22 07:33:06;;;;;;;18.60;10.02;;;;;;;9.83;38.73;94982.75;5087291;28;20035;-77
2023/02/22 07:35:37;;;;;;;17.10;10.40;;;;;;;9.96;38.60;94974.59;5070039;28;20020;-77
2023/02/22 07:38:09;;;;;;;20.73;9.70;;;;;;;10.14;38.09;94977.63;5087930;28;20035;-79
2023/02/22 07:40:36;;;;;;;16.17;8.77;;;;;;;10.39;37.57;94979.00;5069585;28;20441;-79
2023/02/22 07:43:17;;;;;;;17.45;8.45;;;;;;;10.56;37.53;94980.47;5088163;28;20194;-79
2023/02/22 07:45:43;;;;;;;21.08;9.32;;;;;;;10.78;36.93;94986.13;5089535;28;20039;-78
2023/02/22 07:48:11;;;;;;;13.82;8.27;;;;;;;10.92;36.60;94974.72;5089331;28;20482;-79
2023/02/22 07:50:37;;;;;;;15.82;9.38;;;;;;;11.17;36.20;94974.72;5089042;28;20028;-78
2023/02/22 07:53:05;;;;;;;15.35;8.38;;;;;;;11.40;36.03;94978.38;5075887;28;20034;-78
2023/02/22 07:55:31;;;;;;;16.05;9.52;;;;;;;11.63;35.59;94980.00;5089715;28;20055;-79
2023/02/22 07:58:03;;;;;;;19.67;9.57;;;;;;;11.79;35.39;94968.84;5086231;28;20422;-77
2023/02/22 08:00:30;;;;;;;21.25;8.93;;;;;;;11.94;34.86;94974.69;5087954;28;20048;-78
2023/02/22 08:02:58;;;;;;;14.98;9.02;;;;;;;12.21;34.74;94976.91;5086876;28;20032;-79
2023/02/22 08:05:25;;;;;;;16.77;8.07;;;;;;;12.41;34.20;94962.84;5070165;28;20089;-78
2023/02/22 08:07:50;;;;;;;15.05;8.40;;;;;;;12.64;33.96;94973.44;5086832;28;20040;-80
2023/02/22 08:10:17;;;;;;;16.75;8.48;;;;;;;12.85;33.67;94974.66;5086143;28;20391;-79
2023/02/22 08:12:42;;;;;;;15.15;8.70;;;;;;;13.10;33.10;94959.13;5087534;28;20021;-78
2023/02/22 08:15:13;;;;;;;15.95;8.43;;;;;;;13.40;32.80;94966.66;5085461;28;20020;-77
2023/02/22 08:17:38;;;;;;;15.93;8.88;;;;;;;13.75;32.33;94972.75;5087230;28;20505;-78
2023/02/22 08:20:04;;;;;;;14.40;9.27;;;;;;;14.07;32.32;94968.69;5087173;28;20032;-78
2023/02/22 08:22:29;;;;;;;19.77;9.93;;;;;;;14.48;31.42;94965.81;5086525;28;20048;-77
2023/02/22 08:24:55;;;;;;;17.15;10.40;;;;;;;14.90;30.81;94967.91;5087125;28;20110;-78
2023/02/22 08:27:25;;;;;;;26.60;10.80;;;;;;;15.35;29.90;94976.09;5086087;28;20054;-78
2023/02/22 08:29:51;;;;;;;19.63;10.70;;;;;;;15.76;29.80;94964.72;5087205;28;20051;-79
2023/02/22 08:32:17;;;;;;;21.05;12.20;;;;;;;16.22;28.73;94967.97;5084913;28;20020;-78
2023/02/22 08:34:42;;;;;;;25.73;12.73;;;;;;;16.62;28.24;94950.84;5088545;28;20039;-78
2023/02/22 08:37:08;;;;;;;19.95;12.77;;;;;;;17.10;27.80;94958.31;5084558;28;20173;-79
2023/02/22 08:39:33;;;;;;;21.20;13.38;;;;;;;17.47;26.90;94959.41;5089174;28;20390;-77
2023/02/22 08:41:59;;;;;;;17.45;11.43;;;;;;;17.84;26.67;94952.66;5099497;28;20035;-78
2023/02/22 08:44:24;;;;;;;22.73;12.32;;;;;;;18.24;26.34;94958.28;5088396;28;20097;-78
2023/02/22 08:46:50;;;;;;;18.52;11.02;;;;;;;18.69;25.16;94952.47;5086866;28;20020;-78
2023/02/22 08:49:16;;;;;;;18.15;9.82;;;;;;;18.99;24.80;94950.28;5087135;28;20476;-78
2023/02/22 08:51:41;;;;;;;13.27;8.73;;;;;;;19.31;24.92;94957.38;5088456;28;20035;-78
2023/02/22 08:54:07;;;;;;;16.85;9.05;;;;;;;19.63;24.55;94960.22;5084723;28;20446;-79
2023/02/22 08:56:32;;;;;;;18.77;9.68;;;;;;;20.02;23.94;94957.69;5088970;28;20089;-78
2023/02/22 08:58:58;;;;;;;16.23;8.98;;;;;;;20.38;23.52;94958.88;5090684;28;20020;-79
2023/02/22 09:01:23;;;;;;;15.18;9.32;;;;;;;20.74;23.18;94948.13;5086603;28;20028;-77
2023/02/22 09:03:49;;;;;;;14.75;9.05;;;;;;;21.23;22.72;94951.53;5085724;28;20024;-78
2023/02/22 09:06:16;;;;;;;17.17;9.70;;;;;;;21.65;22.31;94941.38;5085165;28;20482;-77
2023/02/22 09:08:41;;;;;;;14.35;9.30;;;;;;;22.06;21.54;94940.81;5086132;28;20024;-80
2023/02/22 09:11:07;;;;;;;12.80;8.35;;;;;;;22.43;21.58;94946.09;5084485;28;20026;-79
2023/02/22 09:13:32;;;;;;;16.25;8.10;;;;;;;22.98;20.70;94949.91;5086509;28;20027;-78
2023/02/22 09:15:57;;;;;;;11.93;7.32;;;;;;;23.47;20.25;94945.25;5085578;28;20146;-79
2023/02/22 09:18:23;;;;;;;13.65;7.35;;;;;;;23.94;19.96;94936.69;5087844;28;20020;-79
2023/02/22 09:20:48;;;;;;;16.15;6.43;;;;;;;24.36;19.83;94935.25;5085121;28;20501;-79
2023/02/22 09:23:14;;;;;;;12.73;6.70;;;;;;;24.82;18.90;94938.25;5085088;28;20483;-79
2023/02/22 09:25:39;;;;;;;10.23;5.75;;;;;;;25.07;18.88;94936.19;5085714;28;20063;-80
2023/02/22 09:28:06;;;;;;;9.00;5.32;;;;;;;25.43;18.65;94939.47;5085734;28;20043;-78
2023/02/22 09:30:33;;;;;;;8.55;5.22;;;;;;;25.51;18.18;94937.53;5087600;28;20024;-79
2023/02/22 09:33:04;;;;;;;6.82;4.80;;;;;;;25.40;18.75;94929.28;5085435;28;20053;-79
2023/02/22 09:35:34;;;;;;;7.53;5.03;;;;;;;25.90;18.40;94936.16;5085295;28;20036;-78
2023/02/22 09:38:00;;;;;;;7.63;4.30;;;;;;;26.53;17.47;94928.84;5090230;28;20020;-80
2023/02/22 09:40:28;;;;;;;6.50;3.95;;;;;;;26.79;17.22;94933.72;5068085;28;20045;-80
2023/02/22 09:43:12;;;;;;;5.90;4.03;;;;;;;26.85;16.73;94925.13;5086786;28;20044;-78
2023/02/22 09:45:50;;;;;;;4.82;3.35;;;;;;;26.44;17.40;94924.44;5085364;28;20404;-78
2023/02/22 09:48:17;;;;;;;8.35;4.28;;;;;;;26.53;17.39;94926.03;5085632;28;20028;-77
2023/02/22 09:50:45;;;;;;;7.10;4.63;;;;;;;26.88;17.14;94930.44;5067178;28;20063;-78
2023/02/22 09:53:21;;;;;;;5.78;3.75;;;;;;;27.32;16.82;94921.56;5084642;28;20030;-78
2023/02/22 09:55:50;;;;;;;4.65;3.28;;;;;;;27.44;16.29;94925.63;5086484;28;20032;-78
2023/02/22 09:58:22;;;;;;;6.75;3.65;;;;;;;28.23;15.57;94922.38;5067281;28;20410;-78
2023/02/22 10:00:50;;;;;;;5.60;3.50;;;;;;;28.79;15.16;94917.25;5086255;28;20613;-79
2023/02/22 10:03:34;;;;;;;6.75;3.40;;;;;;;29.61;14.51;94912.44;5092131;28;20035;-78
2023/02/22 10:06:22;;;;;;;7.70;3.30;;;;;;;30.89;13.90;94909.28;5087261;28;20081;-79
2023/02/22 10:08:49;;;;;;;6.50;3.17;;;;;;;32.63;12.60;94905.06;5085532;28;20438;-79
2023/02/22 10:11:39;;;;;;;6.03;3.33;;;;;;;35.03;10.80;94911.72;5085318;28;20028;-79
2023/02/22 10:14:29;;;;;;;5.53;3.20;;;;;;;36.92;9.66;94903.47;5085265;28;20348;-79
2023/02/22 10:17:07;;;;;;;11.05;6.10;;;;;;;37.91;8.79;94906.31;5085488;28;20505;-79
2023/02/22 10:20:19;;;;;;;8.50;4.20;;;;;;;39.34;8.15;94902.56;5084032;28;20028;-80
2023/02/22 10:22:51;;;;;;;7.10;3.22;;;;;;;40.77;7.52;94894.50;5058006;28;20051;-80
2023/02/22 10:25:19;;;;;;;8.47;3.50;;;;;;;41.85;6.71;94887.56;5085150;28;20047;-80
2023/02/22 10:27:56;;;;;;;6.35;2.92;;;;;;;42.52;6.62;94889.88;5084566;28;20039;-80
2023/02/22 10:30:31;;;;;;;6.13;3.00;;;;;;;43.22;6.24;94888.56;5084299;28;20036;-79
2023/02/22 10:33:04;;;;;;;5.40;3.35;;;;;;;44.22;5.73;94883.84;5088230;28;20050;-79
2023/02/22 10:35:34;;;;;;;5.75;3.38;;;;;;;45.18;5.17;94875.63;5086780;28;20028;-79
2023/02/22 10:38:11;;;;;;;4.95;3.78;;;;;;;45.54;4.84;94876.88;5083695;28;20020;-80
2023/02/22 10:40:38;;;;;;;6.60;5.07;;;;;;;45.49;4.49;94860.00;5084652;28;20051;-80
2023/02/22 10:43:05;;;;;;;5.97;3.20;;;;;;;45.64;4.71;94861.16;5084038;28;20044;-79
2023/02/22 10:45:31;;;;;;;4.65;3.00;;;;;;;45.52;4.66;94847.75;5083534;28;20097;-80
2023/02/22 10:47:59;;;;;;;5.22;2.80;;;;;;;45.61;5.00;94848.03;5086154;28;20035;-79
2023/02/22 10:50:33;;;;;;;5.50;3.92;;;;;;;45.70;4.88;94844.69;5083874;28;20028;-80
2023/02/22 10:52:59;;;;;;;5.32;3.38;;;;;;;45.22;4.68;94843.88;5094256;28;20051;-80
2023/02/22 10:55:25;;;;;;;6.78;3.50;;;;;;;44.40;5.26;94837.44;5088666;28;20020;-80
2023/02/22 10:57:58;;;;;;;4.43;3.13;;;;;;;44.40;5.37;94835.28;5084934;28;20355;-79
2023/02/22 11:00:36;;;;;;;6.20;3.47;;;;;;;44.38;5.18;94825.75;5085269;28;20180;-80
2023/02/22 11:03:20;;;;;;;5.80;3.83;;;;;;;44.34;5.06;94829.25;5066754;28;20035;-79
2023/02/22 11:05:46;;;;;;;8.52;3.30;;;;;;;43.94;5.22;94820.56;5068070;28;20055;-80
2023/02/22 11:08:27;;;;;;;4.95;3.35;;;;;;;43.36;5.61;94821.84;5090790;28;20016;-79
2023/02/22 11:10:55;;;;;;;4.38;3.10;;;;;;;42.43;5.74;94823.06;5084885;28;20168;-79
2023/02/22 11:13:30;;;;;;;6.43;2.83;;;;;;;42.86;5.85;94813.34;5085104;28;20039;-80
2023/02/22 11:16:02;;;;;;;5.80;3.08;;;;;;;43.67;5.44;94803.56;5084503;28;20043;-79
2023/02/22 11:18:31;;;;;;;6.43;2.72;;;;;;;44.22;5.22;94802.75;5084620;28;20028;-80
2023/02/22 11:21:02;;;;;;;6.53;3.22;;;;;;;44.83;4.67;94804.88;5082514;28;20028;-79
2023/02/22 11:23:29;;;;;;;4.15;2.30;;;;;;;45.32;4.15;94799.94;5085681;28;20047;-79
2023/02/22 11:26:06;;;;;;;4.70;2.88;;;;;;;45.25;3.97;94807.69;5085497;28;20035;-80
2023/02/22 11:28:32;;;;;;;3.08;2.03;;;;;;;44.74;4.24;94791.53;5085933;28;20024;-79
2023/02/22 11:31:27;;;;;;;5.45;3.85;;;;;;;43.74;4.89;94785.75;5068010;28;20391;-79
2023/02/22 11:33:54;;;;;;;6.00;2.90;;;;;;;43.27;4.89;94786.09;5083093;28;20032;-79
2023/02/22 11:36:36;;;;;;;6.20;3.05;;;;;;;42.61;5.35;94784.81;5084206;28;20039;-79
2023/02/22 11:39:04;;;;;;;6.68;3.22;;;;;;;42.93;5.30;94788.31;5084775;28;20020;-80
2023/02/22 11:41:33;;;;;;;5.78;3.42;;;;;;;41.92;5.49;94779.63;5066460;28;20058;-79
2023/02/22 11:44:22;;;;;;;3.85;2.53;;;;;;;41.98;5.53;94770.50;5083762;28;20051;-79
2023/02/22 11:46:49;;;;;;;4.10;2.38;;;;;;;41.59;5.86;94771.66;5077388;28;20036;-79